Emory Gap, Tennessee
Current Conditions -  °F | °C
As of 11:53 AM on Friday 28 Nov 2014 (Local Time) from KOQT Reporting Station
Clear Clear  
Wind Chill: 32°   Ceiling: Unl
Heat Index: 36°   Visibility: 10mi
Dew Point: 19°   Wind: 5mph
Humidity: 50%   Direction: NA
Pressure: 30.41"   Gusts: NA
Location:  35.9599°N, 84.4439°W
Report Text: KOQT 281653Z AUTO VRB04KT 10SM CLR 02/M07 A3041 RMK AO2 SLP311 T00221072
Loading
Personal Weather Stations






























Interactive Weather Map New forecast layout! Learn more

10-Day Weather Forecast

Advertisements
Track Severe Weather on mobile